LPR weather

Lorain County Regional Airport
Lorain/Elyria, Ohio, United States

Public forecast

Using degrees Fahrenheit for public forecast. Weather courtesy of forecast.io.

METAR (pilot weather report)

Retrieved 2019/03/26 20:53 UTC (1 hour ago):

KLPR 262053Z AUTO 01014G20KT 10SM CLR 03/M10 A3042 RMK AO2 SLP310 T00281100 55002

TAF (pilot weather forecast)

Closest forecast is Cleveland Hopkins International Airport, 15.3 nm (28.4 km) ENE. Retrieved 2019/03/26 18:22 UTC (4 hours ago):

TAF KCLE 261720Z 2618/2724 02007KT P6SM SKC FM271400 22007KT P6SM SKC